Time;durP1;ratioP1;P1;durP2;ratioP2;P2;SDS_P1;SDS_P2;PMS_P1;PMS_P2;Temp;Humidity;BMP_temperature;BMP_pressure;BME280_temperature;BME280_humidity;BME280_pressure;Samples;Min_cycle;Max_cycle;Signal;HPM_P1;HPM_P2
2023/08/10 00:02:12;;;;;;;13.15;4.97;;;563.70;2432.00;;;;;;5072903;28;20037;-75
2023/08/10 00:04:38;;;;;;;8.40;4.43;;;563.70;2432.00;;;;;;5073097;28;20020;-71
2023/08/10 00:07:04;;;;;;;9.50;4.65;;;563.70;2432.00;;;;;;5073034;28;20120;-71
2023/08/10 00:09:30;;;;;;;8.15;4.47;;;563.70;2432.00;;;;;;5072959;28;20028;-72
2023/08/10 00:11:56;;;;;;;6.35;3.67;;;563.70;2432.00;;;;;;5073088;28;20032;-74
2023/08/10 00:14:21;;;;;;;8.57;4.43;;;563.80;2432.00;;;;;;5072802;28;20024;-72
2023/08/10 00:16:47;;;;;;;7.25;4.20;;;563.70;2432.00;;;;;;5054542;28;20158;-72
2023/08/10 00:19:13;;;;;;;7.78;4.20;;;563.60;2432.00;;;;;;5072886;28;20024;-75
2023/08/10 00:21:39;;;;;;;7.68;4.53;;;563.50;2432.00;;;;;;5072883;28;20482;-71
2023/08/10 00:24:06;;;;;;;7.68;4.22;;;563.60;2432.00;;;;;;5072451;28;20060;-71
2023/08/10 00:26:32;;;;;;;7.93;5.03;;;563.60;2432.00;;;;;;5072957;28;20052;-71
2023/08/10 00:28:58;;;;;;;6.78;4.00;;;563.60;2432.00;;;;;;5072901;28;20028;-71
2023/08/10 00:31:24;;;;;;;15.00;4.60;;;563.60;2432.00;;;;;;5072991;28;20020;-72
2023/08/10 00:33:49;;;;;;;6.35;3.78;;;563.40;2432.00;;;;;;5072614;28;20512;-72
2023/08/10 00:36:15;;;;;;;6.78;4.50;;;563.50;2432.00;;;;;;5072801;28;20060;-72
2023/08/10 00:38:41;;;;;;;8.60;5.05;;;563.30;2432.00;;;;;;5072737;28;20055;-71
2023/08/10 00:41:10;;;;;;;7.00;4.18;;;563.30;2432.00;;;;;;5072610;28;20043;-72
2023/08/10 00:43:36;;;;;;;10.32;4.75;;;563.20;2432.00;;;;;;5072570;28;20032;-72
2023/08/10 00:46:02;;;;;;;6.63;3.97;;;563.20;2432.00;;;;;;5072718;28;20029;-71
2023/08/10 00:48:28;;;;;;;8.00;4.20;;;563.20;2432.00;;;;;;5072007;28;20033;-72
2023/08/10 00:50:54;;;;;;;9.30;3.67;;;563.30;2432.00;;;;;;5072670;28;20044;-72
2023/08/10 00:53:21;;;;;;;8.02;4.10;;;563.20;2432.00;;;;;;5072153;28;20037;-70
2023/08/10 00:55:51;;;;;;;10.48;4.13;;;538.50;2406.40;;;;;;5072621;28;20111;-71
2023/08/10 00:58:21;;;;;;;10.82;3.78;;;538.50;2406.40;;;;;;5072418;28;20024;-73
2023/08/10 01:00:47;;;;;;;7.47;4.40;;;538.50;2406.40;;;;;;5072381;28;20024;-72
2023/08/10 01:03:14;;;;;;;7.97;4.13;;;538.50;2406.40;;;;;;5072400;28;20044;-73
2023/08/10 01:05:59;;;;;;;8.70;4.10;;;538.50;2406.40;;;;;;5072725;28;20017;-71
2023/08/10 01:08:44;;;;;;;11.50;3.75;;;538.50;2406.40;;;;;;5075891;28;20024;-71
2023/08/10 01:11:40;;;;;;;9.13;4.28;;;538.40;2406.40;;;;;;5075922;28;20114;-72
2023/08/10 01:14:25;;;;;;;6.47;3.67;;;538.40;2406.40;;;;;;5014041;28;20093;-73
2023/08/10 01:16:52;;;;;;;6.93;3.70;;;538.50;2406.40;;;;;;5014351;28;20499;-72
2023/08/10 01:19:40;;;;;;;8.68;3.50;;;538.40;2406.40;;;;;;5014069;28;20427;-71
2023/08/10 01:22:09;;;;;;;6.70;3.53;;;538.40;2406.40;;;;;;5013975;28;20181;-71
2023/08/10 01:24:40;;;;;;;8.90;3.25;;;538.40;2406.40;;;;;;5001153;28;20029;-71
2023/08/10 01:27:10;;;;;;;5.57;2.95;;;538.30;2406.40;;;;;;5013921;28;20026;-72
2023/08/10 01:29:36;;;;;;;5.45;2.70;;;538.20;2406.40;;;;;;5014102;28;20391;-72
2023/08/10 01:32:03;;;;;;;5.70;2.78;;;538.30;2380.80;;;;;;5013858;28;20042;-71
2023/08/10 01:34:28;;;;;;;6.70;3.20;;;538.20;2380.80;;;;;;5014061;28;20018;-72
2023/08/10 01:36:54;;;;;;;4.90;2.58;;;538.20;2355.20;;;;;;5013615;28;20673;-71
2023/08/10 01:39:20;;;;;;;5.13;2.75;;;538.30;2329.60;;;;;;5013760;28;20032;-72
2023/08/10 01:41:46;;;;;;;7.13;2.65;;;538.40;2329.60;;;;;;5013472;28;20030;-71
2023/08/10 01:44:11;;;;;;;5.15;2.72;;;538.30;2355.20;;;;;;5013485;28;20033;-74
2023/08/10 01:46:40;;;;;;;7.05;2.45;;;538.20;2355.20;;;;;;5013464;28;20072;-71
2023/08/10 01:49:10;;;;;;;4.25;2.45;;;538.20;2380.80;;;;;;5013141;28;20037;-73
2023/08/10 01:51:39;;;;;;;6.05;2.40;;;538.30;2355.20;;;;;;5069807;28;20033;-71
2023/08/10 01:54:08;;;;;;;8.35;2.60;;;538.10;2380.80;;;;;;5075593;28;20021;-72
2023/08/10 01:56:34;;;;;;;4.25;2.65;;;538.10;2406.40;;;;;;5075229;28;20079;-71
2023/08/10 01:59:00;;;;;;;4.65;2.83;;;538.10;2406.40;;;;;;5075443;28;20462;-72
2023/08/10 02:01:25;;;;;;;5.88;3.03;;;538.00;2406.40;;;;;;5075113;28;20116;-71
2023/08/10 02:03:51;;;;;;;4.53;2.45;;;537.80;2406.40;;;;;;5075321;28;20103;-72
2023/08/10 02:06:17;;;;;;;4.82;2.83;;;537.80;2406.40;;;;;;5075083;28;20428;-73
2023/08/10 02:08:43;;;;;;;7.45;2.88;;;537.90;2406.40;;;;;;5075229;28;20063;-71
2023/08/10 02:11:08;;;;;;;8.30;3.30;;;537.90;2406.40;;;;;;5074847;28;20032;-71
2023/08/10 02:13:34;;;;;;;4.78;2.88;;;538.00;2406.40;;;;;;5075535;28;20028;-71
2023/08/10 02:16:00;;;;;;;10.30;2.90;;;538.00;2406.40;;;;;;5075028;28;20036;-72
2023/08/10 02:18:26;;;;;;;6.00;3.33;;;538.00;2406.40;;;;;;5073891;28;20091;-72
2023/08/10 02:20:51;;;;;;;6.78;2.63;;;537.90;2406.40;;;;;;5074577;28;20031;-76
2023/08/10 02:23:17;;;;;;;5.80;3.42;;;537.80;2406.40;;;;;;5075001;28;20028;-72
2023/08/10 02:25:43;;;;;;;6.63;3.55;;;537.80;2406.40;;;;;;5074434;28;20017;-71
2023/08/10 02:28:09;;;;;;;8.32;3.50;;;537.70;2406.40;;;;;;5074608;28;20382;-73
2023/08/10 02:30:34;;;;;;;6.03;3.20;;;537.70;2406.40;;;;;;5074630;28;20038;-73
2023/08/10 02:33:00;;;;;;;8.02;3.47;;;537.70;2406.40;;;;;;5074749;28;20029;-71
2023/08/10 02:35:26;;;;;;;7.22;3.30;;;537.60;2406.40;;;;;;5074349;28;20073;-73
2023/08/10 02:37:51;;;;;;;8.98;2.95;;;537.60;2406.40;;;;;;5074495;28;20028;-72
2023/08/10 02:40:17;;;;;;;5.07;3.00;;;512.90;2380.80;;;;;;5074351;28;20035;-71
2023/08/10 02:42:43;;;;;;;12.00;2.83;;;537.60;2406.40;;;;;;5074340;28;20036;-71
2023/08/10 02:45:09;;;;;;;5.65;2.83;;;537.70;2406.40;;;;;;5074266;28;20028;-71
2023/08/10 02:47:35;;;;;;;10.15;3.38;;;537.60;2406.40;;;;;;5074260;28;20032;-71
2023/08/10 02:50:05;;;;;;;10.55;3.10;;;512.90;2380.80;;;;;;5073922;28;20425;-71
2023/08/10 02:52:30;;;;;;;6.47;3.33;;;512.90;2380.80;;;;;;5074158;28;20023;-71
2023/08/10 02:54:56;;;;;;;6.70;2.90;;;512.80;2380.80;;;;;;5073981;28;20028;-71
2023/08/10 02:57:22;;;;;;;6.05;3.20;;;512.80;2380.80;;;;;;5074160;28;20462;-71
2023/08/10 02:59:47;;;;;;;5.28;3.10;;;512.70;2380.80;;;;;;5073846;28;20024;-70
2023/08/10 03:02:18;;;;;;;9.95;2.88;;;512.70;2380.80;;;;;;5073191;28;20111;-72
2023/08/10 03:04:44;;;;;;;5.53;3.17;;;512.70;2380.80;;;;;;5073995;28;20155;-72
2023/08/10 03:07:11;;;;;;;6.30;3.58;;;512.70;2380.80;;;;;;5073898;28;20024;-71
2023/08/10 03:09:37;;;;;;;6.85;3.03;;;512.70;2380.80;;;;;;5073785;28;20027;-71
2023/08/10 03:12:03;;;;;;;4.85;3.28;;;512.70;2380.80;;;;;;5073667;28;20028;-72
2023/08/10 03:14:29;;;;;;;5.07;3.10;;;512.70;2380.80;;;;;;5073588;28;20463;-71
2023/08/10 03:16:55;;;;;;;6.00;3.35;;;512.70;2380.80;;;;;;5073943;28;20038;-72
2023/08/10 03:19:21;;;;;;;8.45;3.50;;;512.70;2380.80;;;;;;5055060;28;20436;-71
2023/08/10 03:21:46;;;;;;;8.98;2.92;;;512.80;2380.80;;;;;;5073376;28;20036;-73
2023/08/10 03:24:12;;;;;;;5.68;2.88;;;512.70;2380.80;;;;;;5073525;28;20028;-72
2023/08/10 03:26:38;;;;;;;7.47;3.30;;;512.70;2380.80;;;;;;5073374;28;20044;-72
2023/08/10 03:29:04;;;;;;;7.00;3.30;;;512.60;2380.80;;;;;;5070366;28;20025;-71
2023/08/10 03:31:30;;;;;;;7.85;3.42;;;512.60;2380.80;;;;;;5063610;28;20107;-73
2023/08/10 03:33:55;;;;;;;4.28;2.72;;;512.60;2380.80;;;;;;5073276;28;20099;-71
2023/08/10 03:36:21;;;;;;;5.55;3.22;;;512.60;2380.80;;;;;;5073342;28;20032;-71
2023/08/10 03:38:47;;;;;;;6.65;3.20;;;512.60;2380.80;;;;;;5073553;28;20025;-71
2023/08/10 03:41:13;;;;;;;8.65;3.28;;;512.70;2380.80;;;;;;5073160;28;20529;-71
2023/08/10 03:43:38;;;;;;;6.20;3.30;;;512.50;2380.80;;;;;;5073392;28;20036;-72
2023/08/10 03:46:06;;;;;;;4.45;2.88;;;512.70;2380.80;;;;;;5073380;28;20020;-71
2023/08/10 03:48:31;;;;;;;8.25;3.35;;;512.60;2380.80;;;;;;5072931;28;20394;-70
2023/08/10 03:50:57;;;;;;;5.25;2.75;;;512.60;2380.80;;;;;;5073343;28;20033;-71
2023/08/10 03:53:23;;;;;;;5.38;3.13;;;512.60;2380.80;;;;;;5072743;28;20389;-70
2023/08/10 03:55:48;;;;;;;4.78;2.60;;;512.60;2380.80;;;;;;5073336;28;20024;-72
2023/08/10 03:58:14;;;;;;;5.43;3.65;;;512.40;2380.80;;;;;;5072865;28;20028;-71
2023/08/10 04:00:44;;;;;;;5.22;3.03;;;512.30;2380.80;;;;;;5073189;28;20096;-70
2023/08/10 04:03:11;;;;;;;4.63;3.13;;;512.30;2380.80;;;;;;5072962;28;20478;-71
2023/08/10 04:05:37;;;;;;;5.80;4.03;;;512.50;2380.80;;;;;;5073068;28;20050;-71
2023/08/10 04:08:03;;;;;;;8.18;3.30;;;512.20;2380.80;;;;;;5072805;28;20107;-71
2023/08/10 04:10:29;;;;;;;5.18;3.30;;;512.30;2380.80;;;;;;5073363;28;20021;-70
2023/08/10 04:12:55;;;;;;;5.43;3.25;;;512.30;2380.80;;;;;;5072861;28;20031;-70
2023/08/10 04:15:21;;;;;;;5.15;3.55;;;512.20;2380.80;;;;;;5073199;28;20031;-71
2023/08/10 04:17:47;;;;;;;6.20;3.40;;;512.10;2380.80;;;;;;5072804;28;20024;-70
2023/08/10 04:20:14;;;;;;;6.63;3.78;;;512.10;2380.80;;;;;;5072978;28;20028;-73
2023/08/10 04:22:40;;;;;;;6.70;3.72;;;512.20;2380.80;;;;;;5072687;28;20443;-71
2023/08/10 04:25:07;;;;;;;7.90;3.88;;;512.20;2380.80;;;;;;5072842;28;20399;-71
2023/08/10 04:27:36;;;;;;;9.23;3.75;;;512.10;2380.80;;;;;;5072670;28;20052;-74
2023/08/10 04:30:06;;;;;;;6.13;4.30;;;512.10;2380.80;;;;;;5054913;28;20099;-71
2023/08/10 04:32:32;;;;;;;6.60;3.58;;;487.30;2380.80;;;;;;5072684;28;20495;-71
2023/08/10 04:34:58;;;;;;;4.70;3.80;;;487.30;2380.80;;;;;;5072724;28;20112;-70
2023/08/10 04:37:23;;;;;;;4.90;3.20;;;487.30;2380.80;;;;;;5072576;28;20028;-70
2023/08/10 04:39:49;;;;;;;9.23;3.85;;;487.30;2380.80;;;;;;5072702;28;20028;-70
2023/08/10 04:42:15;;;;;;;5.53;3.85;;;487.30;2380.80;;;;;;5074201;28;20039;-70
2023/08/10 04:44:40;;;;;;;7.40;3.85;;;487.30;2380.80;;;;;;5076837;28;20477;-71
2023/08/10 04:47:06;;;;;;;7.93;4.05;;;487.30;2380.80;;;;;;5076422;28;20150;-70
2023/08/10 04:49:32;;;;;;;9.88;4.05;;;487.20;2380.80;;;;;;5076361;28;20169;-71
2023/08/10 04:51:58;;;;;;;6.30;4.03;;;487.10;2380.80;;;;;;5076478;28;20021;-70
2023/08/10 04:54:23;;;;;;;9.55;3.90;;;487.00;2380.80;;;;;;5076205;28;20099;-70
2023/08/10 04:56:49;;;;;;;9.27;3.67;;;487.10;2380.80;;;;;;5076273;28;20012;-70
2023/08/10 04:59:16;;;;;;;7.47;3.60;;;487.10;2380.80;;;;;;5073394;28;20099;-70
2023/08/10 05:01:42;;;;;;;7.80;4.60;;;487.20;2380.80;;;;;;5075639;28;20115;-70
2023/08/10 05:04:08;;;;;;;8.00;4.05;;;487.20;2380.80;;;;;;5075715;28;20021;-70
2023/08/10 05:06:34;;;;;;;7.18;4.00;;;487.30;2380.80;;;;;;5075587;28;20094;-72
2023/08/10 05:09:01;;;;;;;6.82;3.65;;;487.30;2380.80;;;;;;5075386;28;20474;-71
2023/08/10 05:11:27;;;;;;;5.63;3.38;;;487.30;2380.80;;;;;;5075760;28;20052;-71
2023/08/10 05:13:53;;;;;;;7.30;3.85;;;487.30;2380.80;;;;;;5075458;28;20524;-71
2023/08/10 05:16:18;;;;;;;5.15;3.08;;;487.30;2380.80;;;;;;5075286;28;20019;-71
2023/08/10 05:18:44;;;;;;;5.57;3.35;;;487.30;2380.80;;;;;;5070977;28;20448;-72
2023/08/10 05:21:10;;;;;;;6.78;3.33;;;487.30;2380.80;;;;;;5090418;28;20056;-72
2023/08/10 05:23:37;;;;;;;5.72;3.25;;;512.00;2380.80;;;;;;5072014;28;20082;-71
2023/08/10 05:26:03;;;;;;;6.18;3.53;;;512.20;2380.80;;;;;;5086097;28;20111;-71
2023/08/10 05:28:28;;;;;;;13.48;3.95;;;512.30;2380.80;;;;;;5074764;28;20128;-72
2023/08/10 05:30:54;;;;;;;7.60;2.95;;;512.40;2380.80;;;;;;5075066;28;20035;-72
2023/08/10 05:33:20;;;;;;;7.22;3.60;;;512.60;2380.80;;;;;;5075140;28;20028;-73
2023/08/10 05:35:46;;;;;;;5.90;3.75;;;512.70;2380.80;;;;;;5056636;28;20047;-72
2023/08/10 05:38:12;;;;;;;8.00;3.30;;;512.90;2380.80;;;;;;5075007;28;20017;-73
2023/08/10 05:40:38;;;;;;;6.25;3.42;;;512.90;2380.80;;;;;;5075633;28;20025;-71
2023/08/10 05:43:04;;;;;;;5.65;3.35;;;537.60;2406.40;;;;;;5073114;28;20040;-71
2023/08/10 05:45:31;;;;;;;5.07;3.33;;;537.70;2406.40;;;;;;5074417;28;20497;-73
2023/08/10 05:47:56;;;;;;;6.47;3.40;;;537.70;2406.40;;;;;;5074280;28;20027;-74
2023/08/10 05:50:22;;;;;;;8.02;3.92;;;537.80;2406.40;;;;;;5074673;28;20480;-74
2023/08/10 05:52:48;;;;;;;9.45;3.85;;;537.80;2406.40;;;;;;5074046;28;20021;-71
2023/08/10 05:55:14;;;;;;;8.77;3.90;;;537.80;2406.40;;;;;;5073880;28;20531;-74
2023/08/10 05:57:41;;;;;;;10.48;3.10;;;537.80;2406.40;;;;;;5074504;28;20024;-73
2023/08/10 06:00:09;;;;;;;5.05;3.00;;;538.00;2406.40;;;;;;5073726;28;20016;-73
2023/08/10 06:02:35;;;;;;;5.05;3.03;;;538.00;2406.40;;;;;;5074518;28;20033;-72
2023/08/10 06:05:01;;;;;;;5.20;3.60;;;538.10;2406.40;;;;;;5069005;28;20033;-73
2023/08/10 06:07:27;;;;;;;5.57;2.95;;;538.00;2406.40;;;;;;5072959;28;20028;-73
2023/08/10 06:09:53;;;;;;;4.82;3.10;;;538.20;2406.40;;;;;;5074442;28;20047;-72
2023/08/10 06:12:18;;;;;;;5.53;3.28;;;538.10;2406.40;;;;;;5074145;28;20056;-74
2023/08/10 06:14:45;;;;;;;6.10;2.97;;;538.20;2406.40;;;;;;5074312;28;20435;-74
2023/08/10 06:17:11;;;;;;;6.95;4.25;;;538.50;2406.40;;;;;;5074306;28;20042;-73
2023/08/10 06:19:37;;;;;;;5.25;2.70;;;538.50;2406.40;;;;;;5073956;28;20036;-73
2023/08/10 06:22:03;;;;;;;4.20;2.63;;;563.30;2432.00;;;;;;5072833;28;20041;-73
2023/08/10 06:24:29;;;;;;;5.05;3.30;;;563.40;2432.00;;;;;;5074485;28;20066;-74
2023/08/10 06:26:55;;;;;;;5.93;3.30;;;563.70;2432.00;;;;;;5074119;28;20040;-73
2023/08/10 06:29:21;;;;;;;4.93;3.20;;;563.70;2432.00;;;;;;5073932;28;20382;-74
2023/08/10 06:31:47;;;;;;;5.75;2.67;;;563.90;2432.00;;;;;;5074210;28;20073;-73
2023/08/10 06:34:13;;;;;;;6.10;3.10;;;563.90;2432.00;;;;;;5072155;28;20116;-74
2023/08/10 06:36:39;;;;;;;5.20;3.05;;;563.90;2432.00;;;;;;5070817;28;20100;-73
2023/08/10 06:39:05;;;;;;;9.98;3.15;;;564.00;2432.00;;;;;;5073781;28;20416;-74
2023/08/10 06:41:31;;;;;;;4.97;2.70;;;564.00;2432.00;;;;;;5055015;28;20025;-73
2023/08/10 06:43:56;;;;;;;11.65;3.33;;;564.00;2432.00;;;;;;5073562;28;20024;-72
2023/08/10 06:46:23;;;;;;;5.80;3.40;;;564.00;2432.00;;;;;;5072597;28;20043;-74
2023/08/10 06:48:49;;;;;;;4.32;2.60;;;564.10;2432.00;;;;;;5072716;28;20044;-73
2023/08/10 06:51:15;;;;;;;5.18;2.92;;;564.10;2432.00;;;;;;5073575;28;20040;-74
2023/08/10 06:53:40;;;;;;;6.47;2.95;;;589.10;2432.00;;;;;;5073524;28;20035;-73
2023/08/10 06:56:07;;;;;;;4.43;2.70;;;589.40;2432.00;;;;;;5073391;28;20021;-74
2023/08/10 06:58:33;;;;;;;8.73;3.35;;;589.70;2432.00;;;;;;5051940;28;20443;-74
2023/08/10 07:01:00;;;;;;;4.72;2.90;;;614.50;2432.00;;;;;;5073226;28;20017;-74
2023/08/10 07:03:26;;;;;;;4.80;2.55;;;614.70;2432.00;;;;;;5071921;28;20028;-74
2023/08/10 07:05:52;;;;;;;8.10;2.95;;;614.80;2406.40;;;;;;5070987;28;20024;-74
2023/08/10 07:08:18;;;;;;;3.72;2.40;;;615.00;2304.00;;;;;;5073400;28;20097;-73
2023/08/10 07:10:43;;;;;;;3.83;1.65;;;615.00;2124.80;;;;;;5071205;28;20059;-74
2023/08/10 07:13:09;;;;;;;3.58;2.60;;;615.20;2099.20;;;;;;5073105;28;20025;-74
2023/08/10 07:15:35;;;;;;;4.32;2.53;;;615.30;2099.20;;;;;;5072672;28;20564;-74
2023/08/10 07:18:00;;;;;;;4.55;1.98;;;640.00;2099.20;;;;;;5073174;28;20470;-74
2023/08/10 07:20:26;;;;;;;4.55;2.33;;;640.20;1971.20;;;;;;5072625;28;20033;-74
2023/08/10 07:22:52;;;;;;;2.13;1.45;;;640.40;1843.20;;;;;;5072756;28;20087;-72
2023/08/10 07:25:19;;;;;;;3.20;1.70;;;640.50;1894.40;;;;;;5072854;28;20394;-73
2023/08/10 07:27:45;;;;;;;4.22;1.95;;;640.70;1843.20;;;;;;5068424;28;20447;-73
2023/08/10 07:30:13;;;;;;;3.22;2.10;;;640.70;1843.20;;;;;;5072972;28;20595;-74
2023/08/10 07:32:39;;;;;;;4.18;1.90;;;640.50;1817.60;;;;;;5069468;28;20020;-72
2023/08/10 07:35:05;;;;;;;5.30;2.05;;;640.80;1843.20;;;;;;5055291;28;20143;-73
2023/08/10 07:37:34;;;;;;;3.45;1.90;;;640.90;1792.00;;;;;;5054890;28;20394;-72
2023/08/10 07:40:00;;;;;;;3.08;2.17;;;665.60;1766.40;;;;;;5072460;28;20025;-72
2023/08/10 07:42:26;;;;;;;5.50;2.10;;;665.70;1740.80;;;;;;5072440;28;20086;-72
2023/08/10 07:44:51;;;;;;;6.47;1.70;;;666.10;1715.20;;;;;;5072406;28;20441;-72
2023/08/10 07:47:17;;;;;;;9.40;3.22;;;666.00;1715.20;;;;;;5072500;28;20078;-72
2023/08/10 07:49:43;;;;;;;2.92;1.90;;;666.20;1715.20;;;;;;5072639;28;20044;-71
2023/08/10 07:52:09;;;;;;;27.77;13.65;;;666.30;1766.40;;;;;;5070156;28;20043;-72
2023/08/10 07:54:36;;;;;;;43.97;18.85;;;691.20;1715.20;;;;;;5072601;28;20048;-71
2023/08/10 07:57:02;;;;;;;5.57;2.33;;;691.30;1664.00;;;;;;5072481;28;20036;-72
2023/08/10 07:59:27;;;;;;;30.80;10.30;;;666.50;1689.60;;;;;;5070914;28;20024;-72
2023/08/10 08:01:53;;;;;;;4.13;2.22;;;691.40;1638.40;;;;;;5062028;28;20120;-72
2023/08/10 08:04:19;;;;;;;3.08;1.98;;;691.20;1587.20;;;;;;5071835;28;20044;-71
2023/08/10 08:06:45;;;;;;;4.78;2.70;;;691.40;1612.80;;;;;;5072444;28;20047;-71
2023/08/10 08:09:12;;;;;;;5.93;3.05;;;691.40;1638.40;;;;;;5068367;28;20025;-71
2023/08/10 08:11:38;;;;;;;3.63;2.28;;;691.60;1638.40;;;;;;5073002;28;20090;-73
2023/08/10 08:14:04;;;;;;;15.55;11.60;;;691.90;1587.20;;;;;;5068272;28;20462;-71
2023/08/10 08:16:30;;;;;;;7.38;3.30;;;692.00;1612.80;;;;;;5071375;28;20488;-70
2023/08/10 08:18:56;;;;;;;64.72;44.90;;;716.90;1664.00;;;;;;5072205;28;20040;-69
2023/08/10 08:21:27;;;;;;;8.40;5.35;;;716.90;1612.80;;;;;;5072046;28;20466;-70
2023/08/10 08:23:54;;;;;;;39.95;25.52;;;692.10;1612.80;;;;;;5054282;28;20033;-70
2023/08/10 08:26:21;;;;;;;39.25;27.73;;;692.10;1587.20;;;;;;5070345;28;20043;-70
2023/08/10 08:28:47;;;;;;;17.08;10.52;;;691.60;1587.20;;;;;;5071958;28;20097;-69
2023/08/10 08:31:14;;;;;;;22.25;11.50;;;692.00;1587.20;;;;;;5072280;28;20074;-73
2023/08/10 08:33:40;;;;;;;44.63;25.45;;;692.10;1561.60;;;;;;5054205;28;20041;-70
2023/08/10 08:36:09;;;;;;;25.10;17.65;;;716.90;1587.20;;;;;;5071883;28;20386;-69
2023/08/10 08:38:36;;;;;;;37.25;21.98;;;717.10;1561.60;;;;;;5072205;28;20040;-70
2023/08/10 08:41:04;;;;;;;8.90;4.15;;;717.10;1536.00;;;;;;5072465;28;20017;-70
2023/08/10 08:43:30;;;;;;;6.60;3.70;;;717.40;1459.20;;;;;;5071801;28;20039;-70
2023/08/10 08:46:00;;;;;;;4.10;2.70;;;717.70;1484.80;;;;;;5071889;28;20055;-70
2023/08/10 08:48:27;;;;;;;4.25;2.50;;;716.80;1459.20;;;;;;5071502;28;20509;-70
2023/08/10 08:50:54;;;;;;;5.05;3.95;;;716.80;1484.80;;;;;;5071871;28;20033;-69
2023/08/10 08:53:21;;;;;;;4.25;2.58;;;717.40;1459.20;;;;;;5072037;28;20547;-71
2023/08/10 08:55:47;;;;;;;15.63;8.50;;;717.50;1459.20;;;;;;5072330;28;20028;-75
2023/08/10 08:58:16;;;;;;;3.92;2.72;;;717.70;1433.60;;;;;;5071693;28;20028;-70
2023/08/10 09:00:50;;;;;;;3.63;2.13;;;742.50;1408.00;;;;;;5063510;28;20103;-72
2023/08/10 09:03:16;;;;;;;4.35;2.22;;;742.80;1459.20;;;;;;5067305;28;20111;-71
2023/08/10 09:05:45;;;;;;;6.20;3.50;;;743.00;1382.40;;;;;;5072273;28;20047;-70
2023/08/10 09:08:14;;;;;;;3.08;1.85;;;743.30;1382.40;;;;;;5071694;28;20032;-73
2023/08/10 09:10:39;;;;;;;12.63;8.02;;;742.80;1331.20;;;;;;5069983;28;20025;-71
2023/08/10 09:13:21;;;;;;;3.97;1.98;;;742.80;1382.40;;;;;;5071233;28;20128;-71
2023/08/10 09:15:47;;;;;;;2.53;1.70;;;742.80;1408.00;;;;;;5067346;28;20029;-71
2023/08/10 09:18:13;;;;;;;2.45;1.50;;;742.90;1433.60;;;;;;5071635;28;20067;-71
2023/08/10 09:20:38;;;;;;;2.70;1.63;;;742.60;1408.00;;;;;;5071606;28;20041;-71
2023/08/10 09:23:05;;;;;;;2.55;1.65;;;742.90;1408.00;;;;;;5071233;28;20040;-72
2023/08/10 09:25:36;;;;;;;1.42;1.17;;;743.20;1356.80;;;;;;5071579;28;20025;-73
2023/08/10 09:28:10;;;;;;;2.53;1.90;;;743.10;1356.80;;;;;;5072076;28;20036;-72
2023/08/10 09:30:36;;;;;;;4.50;2.92;;;743.30;1356.80;;;;;;5075279;28;20036;-72
2023/08/10 09:33:01;;;;;;;2.60;1.63;;;768.10;1356.80;;;;;;5074697;28;20389;-72
2023/08/10 09:35:30;;;;;;;3.55;1.98;;;743.30;1331.20;;;;;;5071034;28;20489;-72
2023/08/10 09:38:02;;;;;;;3.80;1.92;;;768.00;1356.80;;;;;;5056533;28;20086;-72
2023/08/10 09:40:28;;;;;;;2.72;1.65;;;768.10;1280.00;;;;;;5075257;28;20020;-73
2023/08/10 09:42:54;;;;;;;3.20;1.80;;;743.30;1305.60;;;;;;5074804;28;20048;-71
2023/08/10 09:45:20;;;;;;;15.98;3.15;;;743.30;1331.20;;;;;;5074749;28;20110;-72
2023/08/10 09:47:46;;;;;;;3.28;1.90;;;768.00;1331.20;;;;;;5074876;28;20078;-71
2023/08/10 09:50:16;;;;;;;3.58;1.70;;;768.60;1305.60;;;;;;5074521;28;20446;-73
2023/08/10 09:52:43;;;;;;;2.65;1.80;;;768.70;1305.60;;;;;;5066969;28;20040;-73
2023/08/10 09:55:10;;;;;;;4.53;1.60;;;768.40;1305.60;;;;;;5074682;28;20040;-73
2023/08/10 09:57:40;;;;;;;4.75;2.40;;;768.00;1331.20;;;;;;5074678;28;20028;-71
2023/08/10 10:00:13;;;;;;;3.10;2.05;;;768.40;1331.20;;;;;;5074530;28;20024;-72
2023/08/10 10:02:40;;;;;;;3.63;2.15;;;768.50;1356.80;;;;;;5066857;28;20041;-71
2023/08/10 10:05:07;;;;;;;4.35;1.95;;;768.70;1356.80;;;;;;5075011;28;20466;-74
2023/08/10 10:07:33;;;;;;;3.20;2.20;;;768.40;1356.80;;;;;;5073279;28;20031;-71
2023/08/10 10:09:59;;;;;;;3.25;2.00;;;793.70;1331.20;;;;;;5070628;28;20025;-73
2023/08/10 10:12:26;;;;;;;6.40;1.98;;;768.90;1280.00;;;;;;5047415;28;20078;-73
2023/08/10 10:14:52;;;;;;;3.40;1.70;;;793.70;1305.60;;;;;;5074292;28;20029;-72
2023/08/10 10:17:19;;;;;;;4.97;2.05;;;793.70;1305.60;;;;;;5073703;28;20389;-72
2023/08/10 10:19:50;;;;;;;3.58;1.90;;;794.00;1356.80;;;;;;5073482;28;20071;-73
2023/08/10 10:22:17;;;;;;;2.88;1.67;;;793.90;1305.60;;;;;;5073535;28;20101;-72
2023/08/10 10:24:43;;;;;;;3.03;1.60;;;768.80;1305.60;;;;;;5073453;28;20009;-72
2023/08/10 10:27:11;;;;;;;4.60;2.30;;;768.10;1331.20;;;;;;5074311;28;20028;-72
2023/08/10 10:29:56;;;;;;;3.45;1.60;;;768.90;1331.20;;;;;;5073601;28;20126;-72
2023/08/10 10:32:22;;;;;;;6.03;1.83;;;768.60;1305.60;;;;;;5073913;28;20043;-70
2023/08/10 10:34:51;;;;;;;5.63;2.20;;;768.20;1331.20;;;;;;5073495;28;20519;-73
2023/08/10 10:37:37;;;;;;;4.07;1.70;;;743.30;1382.40;;;;;;5073906;28;20028;-73
2023/08/10 10:40:29;;;;;;;2.03;1.48;;;742.90;1382.40;;;;;;5071385;28;20111;-73
2023/08/10 10:43:01;;;;;;;4.13;1.85;;;742.80;1408.00;;;;;;5071640;28;20455;-73
2023/08/10 10:45:27;;;;;;;4.53;2.63;;;742.50;1433.60;;;;;;5073808;28;20025;-74
2023/08/10 10:47:55;;;;;;;7.07;2.58;;;717.70;1433.60;;;;;;5073694;28;20447;-74
2023/08/10 10:50:28;;;;;;;6.82;2.17;;;717.50;1459.20;;;;;;5071251;28;20091;-72
2023/08/10 10:53:11;;;;;;;4.47;1.90;;;717.40;1459.20;;;;;;5073697;28;20105;-75
2023/08/10 10:55:44;;;;;;;6.00;2.10;;;717.30;1484.80;;;;;;5067363;28;20090;-73
2023/08/10 10:58:12;;;;;;;3.88;1.88;;;717.20;1484.80;;;;;;5073329;28;20020;-72
2023/08/10 11:00:39;;;;;;;4.22;1.92;;;717.00;1510.40;;;;;;5073258;28;20415;-71
2023/08/10 11:03:08;;;;;;;8.38;2.22;;;716.90;1484.80;;;;;;5072931;28;20119;-71
2023/08/10 11:05:34;;;;;;;3.45;2.00;;;716.80;1510.40;;;;;;5071301;28;20425;-71
2023/08/10 11:08:05;;;;;;;3.92;2.58;;;692.10;1510.40;;;;;;5072692;28;20024;-71
2023/08/10 11:10:35;;;;;;;3.80;2.42;;;692.00;1587.20;;;;;;5072643;28;20021;-73
2023/08/10 11:13:06;;;;;;;5.47;2.60;;;692.00;1587.20;;;;;;5072426;28;20063;-71
2023/08/10 11:15:33;;;;;;;7.05;2.60;;;691.80;1536.00;;;;;;5072540;28;20025;-70
2023/08/10 11:17:59;;;;;;;6.22;2.42;;;691.90;1484.80;;;;;;5072329;28;20025;-69
2023/08/10 11:20:26;;;;;;;4.38;2.15;;;691.90;1484.80;;;;;;5068500;28;20040;-70
2023/08/10 11:22:53;;;;;;;6.55;2.33;;;692.10;1484.80;;;;;;5072398;28;20083;-72
2023/08/10 11:25:19;;;;;;;3.42;1.88;;;716.80;1484.80;;;;;;5072104;28;20538;-70
2023/08/10 11:27:47;;;;;;;3.17;1.98;;;716.90;1510.40;;;;;;5073044;28;20118;-70
2023/08/10 11:30:15;;;;;;;5.25;2.03;;;716.80;1459.20;;;;;;5071886;28;20444;-71
2023/08/10 11:32:42;;;;;;;6.05;2.10;;;716.90;1484.80;;;;;;5072302;28;20028;-70
2023/08/10 11:35:09;;;;;;;5.25;1.98;;;717.00;1459.20;;;;;;5073226;28;20021;-70
2023/08/10 11:37:38;;;;;;;3.28;2.05;;;717.10;1408.00;;;;;;5072886;28;20021;-72
2023/08/10 11:40:18;;;;;;;4.10;1.90;;;717.10;1510.40;;;;;;5072522;28;20024;-74
2023/08/10 11:42:48;;;;;;;3.13;2.00;;;717.50;1433.60;;;;;;5072732;28;20032;-74
2023/08/10 11:45:20;;;;;;;3.63;1.95;;;717.70;1433.60;;;;;;5072669;28;20031;-70
2023/08/10 11:47:53;;;;;;;3.17;1.95;;;742.40;1484.80;;;;;;5072600;28;20033;-70
2023/08/10 11:50:21;;;;;;;3.63;2.17;;;742.40;1433.60;;;;;;5072341;28;20064;-72
2023/08/10 11:52:51;;;;;;;3.50;2.00;;;742.40;1459.20;;;;;;5071764;28;20074;-73
2023/08/10 11:55:18;;;;;;;6.68;2.25;;;742.70;1484.80;;;;;;5072410;28;20020;-70
2023/08/10 11:57:48;;;;;;;5.50;2.83;;;742.50;1484.80;;;;;;5072600;28;20104;-75
2023/08/10 12:00:23;;;;;;;6.78;2.70;;;742.60;1484.80;;;;;;5072441;28;20028;-72
2023/08/10 12:03:02;;;;;;;6.50;2.33;;;742.50;1510.40;;;;;;5072077;28;20036;-71
2023/08/10 12:05:41;;;;;;;9.82;2.85;;;742.40;1510.40;;;;;;5072429;28;20099;-71
2023/08/10 12:08:11;;;;;;;5.72;2.50;;;742.80;1484.80;;;;;;5072104;28;20029;-73
2023/08/10 12:10:50;;;;;;;6.65;2.55;;;743.10;1484.80;;;;;;5072049;28;20510;-72
2023/08/10 12:13:20;;;;;;;5.00;2.35;;;768.10;1408.00;;;;;;5072263;28;20028;-72
2023/08/10 12:15:50;;;;;;;4.30;2.47;;;743.00;1382.40;;;;;;5068452;28;20039;-73
2023/08/10 12:18:18;;;;;;;6.35;2.28;;;742.60;1433.60;;;;;;5070710;28;20029;-73